createdAt,value
2023-04-21T00:01:30.116Z,7.67
2023-04-21T00:03:57.368Z,7.66
2023-04-21T00:06:24.539Z,7.61
2023-04-21T00:08:51.581Z,7.64
2023-04-21T00:11:19.115Z,7.70
2023-04-21T00:14:18.008Z,7.69
2023-04-21T00:16:45.236Z,7.66
2023-04-21T00:19:14.351Z,7.62
2023-04-21T00:21:41.509Z,7.74
2023-04-21T00:24:08.749Z,7.62
2023-04-21T00:26:35.822Z,7.81
2023-04-21T00:29:03.342Z,7.90
2023-04-21T00:31:31.823Z,8.10
2023-04-21T00:33:58.896Z,7.79
2023-04-21T00:36:28.315Z,7.75
2023-04-21T00:38:55.633Z,7.65
2023-04-21T00:41:23.788Z,7.60
2023-04-21T00:44:07.042Z,7.56
2023-04-21T00:47:06.161Z,7.56
2023-04-21T00:49:33.510Z,7.56
2023-04-21T00:52:00.926Z,7.56
2023-04-21T00:54:28.524Z,7.56
2023-04-21T01:00:46.549Z,7.59
2023-04-21T01:03:13.897Z,7.64
2023-04-21T01:05:42.659Z,7.64
2023-04-21T01:08:12.156Z,7.59
2023-04-21T01:10:39.261Z,7.54
2023-04-21T01:13:06.480Z,7.64
2023-04-21T01:15:34.007Z,7.79
2023-04-21T01:18:01.351Z,7.82
2023-04-21T01:20:29.873Z,7.73
2023-04-21T01:22:58.215Z,7.80
2023-04-21T01:25:28.475Z,7.67
2023-04-21T01:27:56.402Z,7.78
2023-04-21T01:30:23.508Z,7.65
2023-04-21T01:32:52.064Z,7.64
2023-04-21T01:35:19.259Z,7.59
2023-04-21T01:37:46.499Z,7.49
2023-04-21T01:40:14.131Z,7.52
2023-04-21T01:42:43.448Z,7.44
2023-04-21T01:45:11.325Z,7.41
2023-04-21T01:47:38.715Z,7.48
2023-04-21T01:50:08.044Z,7.45
2023-04-21T01:52:35.187Z,7.44
2023-04-21T01:55:02.523Z,7.41
2023-04-21T01:57:29.722Z,7.49
2023-04-21T01:59:57.712Z,7.53
2023-04-21T02:02:25.194Z,7.55
2023-04-21T02:04:52.419Z,7.41
2023-04-21T02:07:19.549Z,7.37
2023-04-21T02:09:46.652Z,7.29
2023-04-21T02:12:15.254Z,7.31
2023-04-21T02:14:42.827Z,7.28
2023-04-21T02:17:09.934Z,7.26
2023-04-21T02:19:37.892Z,7.24
2023-04-21T02:22:07.001Z,7.18
2023-04-21T02:24:36.200Z,7.18
2023-04-21T02:27:03.530Z,7.02
2023-04-21T02:29:30.733Z,6.96
2023-04-21T02:32:07.775Z,6.96
2023-04-21T02:34:45.317Z,6.94
2023-04-21T02:37:12.452Z,6.97
2023-04-21T02:39:39.566Z,6.97
2023-04-21T02:42:06.715Z,7.01
2023-04-21T02:44:49.220Z,7.03
2023-04-21T02:47:17.032Z,7.10
2023-04-21T02:49:44.655Z,7.11
2023-04-21T02:52:12.831Z,7.11
2023-04-21T02:54:39.881Z,7.11
2023-04-21T02:57:07.027Z,7.15
2023-04-21T02:59:34.204Z,7.23
2023-04-21T03:02:01.359Z,7.27
2023-04-21T03:04:28.806Z,7.32
2023-04-21T03:06:58.171Z,7.34
2023-04-21T03:09:25.596Z,7.30
2023-04-21T03:11:53.497Z,7.23
2023-04-21T03:14:20.716Z,7.10
2023-04-21T03:16:47.857Z,7.07
2023-04-21T03:19:14.947Z,7.00
2023-04-21T03:21:41.992Z,7.06
2023-04-21T03:24:09.523Z,7.04
2023-04-21T03:26:38.836Z,7.01
2023-04-21T03:29:05.952Z,7.09
2023-04-21T03:31:33.197Z,7.13
2023-04-21T03:34:00.250Z,7.15
2023-04-21T03:36:27.735Z,7.11
2023-04-21T03:38:55.529Z,7.16
2023-04-21T03:41:23.509Z,7.18
2023-04-21T03:43:53.585Z,7.26
2023-04-21T03:46:22.179Z,7.34
2023-04-21T03:48:49.461Z,7.37
2023-04-21T03:51:16.683Z,7.49
2023-04-21T03:53:44.009Z,7.55
2023-04-21T03:56:11.209Z,7.57
2023-04-21T03:58:38.427Z,7.60
2023-04-21T04:01:07.123Z,7.67
2023-04-21T04:03:34.976Z,7.77
2023-04-21T04:06:04.305Z,7.90
2023-04-21T04:08:31.579Z,8.09
2023-04-21T04:10:58.765Z,7.73
2023-04-21T04:13:26.843Z,7.62
2023-04-21T04:15:54.157Z,7.67
2023-04-21T04:18:21.812Z,7.74
2023-04-21T04:20:48.901Z,7.81
2023-04-21T04:23:16.251Z,7.79
2023-04-21T04:25:43.527Z,7.83
2023-04-21T04:28:10.729Z,7.86
2023-04-21T04:30:37.825Z,7.90
2023-04-21T04:33:05.752Z,7.91
2023-04-21T04:35:32.930Z,7.99
2023-04-21T04:37:59.972Z,8.03
2023-04-21T04:40:27.216Z,8.12
2023-04-21T04:42:55.111Z,8.21
2023-04-21T04:45:22.452Z,8.27
2023-04-21T04:47:52.774Z,8.37
2023-04-21T04:50:20.554Z,8.42
2023-04-21T04:52:49.199Z,8.47
2023-04-21T04:55:16.343Z,8.53
2023-04-21T04:57:43.456Z,8.53
2023-04-21T05:00:11.893Z,8.53
2023-04-21T05:02:39.281Z,8.59
2023-04-21T05:05:07.837Z,8.65
2023-04-21T05:07:35.440Z,9.11
2023-04-21T05:10:04.550Z,9.34
2023-04-21T05:12:34.994Z,8.93
2023-04-21T05:15:02.385Z,8.90
2023-04-21T05:17:31.380Z,8.86
2023-04-21T05:19:58.682Z,8.96
2023-04-21T05:22:26.340Z,9.54
2023-04-21T05:24:53.581Z,9.70
2023-04-21T05:27:20.861Z,9.96
2023-04-21T05:29:48.027Z,9.97
2023-04-21T05:32:15.585Z,10.05
2023-04-21T05:34:42.656Z,10.00
2023-04-21T05:37:12.284Z,10.05
2023-04-21T05:39:39.592Z,9.99
2023-04-21T05:42:06.895Z,10.08
2023-04-21T05:44:34.202Z,10.15
2023-04-21T05:47:01.277Z,10.23
2023-04-21T05:49:28.522Z,10.03
2023-04-21T05:51:55.566Z,10.41
2023-04-21T05:54:22.751Z,10.38
2023-04-21T05:56:49.824Z,10.38
2023-04-21T05:59:17.167Z,10.18
2023-04-21T06:01:44.771Z,10.38
2023-04-21T06:04:12.128Z,9.71
2023-04-21T06:06:39.696Z,9.41
2023-04-21T06:09:08.068Z,9.37
2023-04-21T06:11:35.210Z,9.11
2023-04-21T06:14:02.287Z,8.31
2023-04-21T06:16:32.375Z,7.88
2023-04-21T06:18:59.868Z,7.50
2023-04-21T06:21:27.089Z,7.44
2023-04-21T06:23:54.112Z,7.33
2023-04-21T06:26:21.267Z,7.20
2023-04-21T06:28:48.280Z,7.12
2023-04-21T06:31:15.789Z,7.07
2023-04-21T06:33:43.072Z,7.16
2023-04-21T06:36:10.127Z,7.16
2023-04-21T06:38:37.174Z,7.09
2023-04-21T06:41:04.939Z,7.11
2023-04-21T06:43:32.018Z,7.17
2023-04-21T06:45:59.097Z,7.25
2023-04-21T06:48:26.577Z,7.25
2023-04-21T06:50:53.926Z,7.23
2023-04-21T06:54:30.277Z,7.24
2023-04-21T06:56:57.394Z,7.31
2023-04-21T06:59:24.660Z,7.21
2023-04-21T07:01:55.055Z,7.22
2023-04-21T07:04:22.286Z,7.01
2023-04-21T07:06:49.429Z,7.02
2023-04-21T07:09:16.555Z,7.17
2023-04-21T07:11:43.599Z,7.20
2023-04-21T07:14:11.174Z,7.23
2023-04-21T07:16:38.350Z,7.30
2023-04-21T07:19:05.516Z,7.38
2023-04-21T07:21:36.318Z,7.38
2023-04-21T07:24:04.015Z,7.42
2023-04-21T07:26:31.122Z,7.32
2023-04-21T07:29:00.727Z,7.32
2023-04-21T07:31:27.828Z,7.51
2023-04-21T07:33:54.940Z,7.76
2023-04-21T07:36:22.039Z,7.74
2023-04-21T07:38:49.039Z,7.84
2023-04-21T07:41:16.088Z,8.00
2023-04-21T07:43:43.104Z,7.99
2023-04-21T07:46:10.214Z,7.95
2023-04-21T07:48:37.272Z,8.19
2023-04-21T07:51:04.310Z,8.22
2023-04-21T07:53:31.573Z,8.49
2023-04-21T07:55:59.137Z,8.64
2023-04-21T07:58:26.265Z,8.98
2023-04-21T08:00:53.426Z,9.15
2023-04-21T08:03:23.819Z,9.47
2023-04-21T08:05:51.630Z,9.54
2023-04-21T08:08:20.600Z,9.41
2023-04-21T08:10:47.989Z,9.51
2023-04-21T08:13:15.203Z,9.24
2023-04-21T08:15:42.422Z,9.56
2023-04-21T08:18:09.782Z,9.20
2023-04-21T08:20:36.996Z,9.32
2023-04-21T08:23:04.196Z,9.14
2023-04-21T08:25:31.473Z,9.08
2023-04-21T08:27:58.621Z,9.05
2023-04-21T08:30:27.484Z,9.12
2023-04-21T08:32:54.545Z,9.03
2023-04-21T08:35:21.692Z,9.12
2023-04-21T08:37:49.085Z,9.20
2023-04-21T08:40:18.316Z,9.34
2023-04-21T08:42:46.068Z,9.39
2023-04-21T08:45:13.128Z,9.50
2023-04-21T08:47:42.072Z,9.56
2023-04-21T08:50:13.775Z,9.62
2023-04-21T08:52:41.063Z,9.62
2023-04-21T08:55:10.235Z,9.65
2023-04-21T08:57:37.393Z,9.96
2023-04-21T09:00:07.883Z,10.19
2023-04-21T09:03:04.328Z,10.42
2023-04-21T09:05:36.391Z,10.42
2023-04-21T09:08:16.792Z,10.43
2023-04-21T09:10:49.539Z,10.48
2023-04-21T09:13:18.385Z,10.54
2023-04-21T09:15:47.518Z,10.78
2023-04-21T09:18:16.652Z,11.25
2023-04-21T09:20:45.532Z,11.71
2023-04-21T09:23:13.256Z,12.02
2023-04-21T09:25:45.628Z,12.01
2023-04-21T09:28:14.986Z,11.54
2023-04-21T09:30:43.136Z,11.50
2023-04-21T09:33:28.029Z,11.12
2023-04-21T09:35:56.402Z,11.24
2023-04-21T09:38:26.301Z,11.27
2023-04-21T09:41:00.252Z,11.46
2023-04-21T09:43:27.358Z,11.53
2023-04-21T10:17:51.877Z,10.70
2023-04-21T10:20:18.920Z,10.73
2023-04-21T10:22:46.142Z,10.74
2023-04-21T10:25:14.469Z,10.83
2023-04-21T10:27:43.229Z,10.91
2023-04-21T10:30:20.644Z,11.12
2023-04-21T10:32:47.866Z,11.19
2023-04-21T10:35:21.708Z,11.24
2023-04-21T10:37:51.696Z,11.41
2023-04-21T10:40:43.237Z,11.57
2023-04-21T10:43:43.491Z,11.91
2023-04-21T10:46:34.081Z,11.71
2023-04-21T10:49:21.608Z,11.82
2023-04-21T10:52:02.655Z,11.75
2023-04-21T10:55:06.741Z,11.56
2023-04-21T10:57:35.662Z,11.56
2023-04-21T11:00:07.074Z,11.35
2023-04-21T11:02:38.658Z,11.36
2023-04-21T11:05:09.600Z,11.23
2023-04-21T11:07:37.151Z,11.13
2023-04-21T11:10:08.254Z,11.18
2023-04-21T11:12:39.112Z,11.32
2023-04-21T11:15:09.069Z,11.96
2023-04-21T11:17:39.398Z,12.16
2023-04-21T11:20:07.325Z,12.59
2023-04-21T11:22:36.437Z,12.21
2023-04-21T11:25:04.661Z,12.14
2023-04-21T11:27:31.870Z,12.51
2023-04-21T11:29:59.054Z,12.31
2023-04-21T11:32:26.215Z,12.91
2023-04-21T11:34:54.506Z,13.11
2023-04-21T11:37:30.071Z,12.52
2023-04-21T11:40:01.424Z,12.31
2023-04-21T11:42:29.167Z,12.26
2023-04-21T11:44:57.374Z,12.15
2023-04-21T11:47:26.831Z,12.05
2023-04-21T11:49:59.075Z,12.06
2023-04-21T11:52:34.535Z,12.08
2023-04-21T11:55:11.898Z,11.71
2023-04-21T11:57:40.766Z,11.66
2023-04-21T12:00:15.455Z,11.64
2023-04-21T12:02:43.942Z,11.90
2023-04-21T12:05:13.286Z,12.29
2023-04-21T12:07:52.071Z,12.05
2023-04-21T12:10:21.013Z,11.68
2023-04-21T12:12:48.502Z,12.13
2023-04-21T12:15:20.540Z,12.24
2023-04-21T12:17:49.731Z,12.02
2023-04-21T12:20:18.761Z,12.08
2023-04-21T12:22:46.879Z,12.30
2023-04-21T12:25:14.298Z,12.34
2023-04-21T12:27:52.263Z,12.65
2023-04-21T12:30:20.931Z,12.23
2023-04-21T12:32:48.474Z,12.25
2023-04-21T12:35:16.251Z,12.22
2023-04-21T12:37:44.861Z,12.29
2023-04-21T12:40:12.230Z,12.38
2023-04-21T12:42:39.300Z,12.24
2023-04-21T12:45:07.029Z,12.66
2023-04-21T12:47:35.382Z,12.86
2023-04-21T12:50:02.657Z,12.80
2023-04-21T12:52:29.701Z,12.59
2023-04-21T12:54:56.708Z,12.76
2023-04-21T12:57:23.796Z,12.76
2023-04-21T12:59:50.963Z,12.60
2023-04-21T13:02:18.132Z,12.58
2023-04-21T13:04:45.315Z,13.06
2023-04-21T13:07:12.645Z,12.41
2023-04-21T13:09:39.724Z,12.57
2023-04-21T13:12:06.826Z,12.30
2023-04-21T13:14:34.108Z,12.49
2023-04-21T13:17:01.322Z,12.03
2023-04-21T13:19:30.078Z,12.14
2023-04-21T13:21:57.459Z,12.26
2023-04-21T13:24:26.143Z,12.38
2023-04-21T13:26:53.323Z,12.30
2023-04-21T13:29:20.800Z,12.33
2023-04-21T13:31:47.942Z,12.02
2023-04-21T13:34:15.128Z,12.24
2023-04-21T13:36:42.592Z,12.41
2023-04-21T13:39:10.374Z,12.50
2023-04-21T13:41:37.926Z,11.99
2023-04-21T13:44:05.408Z,12.22
2023-04-21T13:46:32.693Z,12.07
2023-04-21T13:48:59.780Z,12.18
2023-04-21T13:51:26.917Z,11.93
2023-04-21T13:53:54.136Z,11.80
2023-04-21T13:56:21.793Z,12.02
2023-04-21T13:58:48.989Z,12.19
2023-04-21T14:01:17.194Z,12.39
2023-04-21T14:03:45.336Z,12.25
2023-04-21T14:06:12.633Z,12.26
2023-04-21T14:08:39.847Z,12.28
2023-04-21T14:11:07.008Z,12.32
2023-04-21T14:13:41.883Z,12.09
2023-04-21T14:16:15.307Z,12.20
2023-04-21T14:18:45.356Z,12.38
2023-04-21T14:21:12.523Z,11.99
2023-04-21T14:23:39.770Z,11.98
2023-04-21T14:26:06.995Z,12.15
2023-04-21T14:28:34.304Z,12.26
2023-04-21T14:31:02.095Z,12.35
2023-04-21T14:33:29.872Z,12.24
2023-04-21T14:35:57.097Z,12.24
2023-04-21T14:38:24.700Z,12.29
2023-04-21T14:40:54.662Z,12.36
2023-04-21T14:43:22.406Z,12.29
2023-04-21T14:45:49.752Z,12.30
2023-04-21T14:48:17.403Z,12.34
2023-04-21T14:51:16.215Z,12.70
2023-04-21T14:53:43.426Z,12.58
2023-04-21T14:56:10.537Z,12.28
2023-04-21T14:58:37.642Z,12.13
2023-04-21T15:01:05.288Z,12.29
2023-04-21T15:03:32.532Z,12.18
2023-04-21T15:05:59.797Z,12.11
2023-04-21T15:08:27.810Z,11.90
2023-04-21T15:10:54.961Z,11.91
2023-04-21T15:13:22.160Z,11.93
2023-04-21T15:15:51.674Z,11.95
2023-04-21T15:18:18.815Z,11.86
2023-04-21T15:20:46.124Z,11.79
2023-04-21T15:23:13.594Z,11.87
2023-04-21T15:25:41.164Z,11.89
2023-04-21T15:28:08.820Z,11.91
2023-04-21T15:30:36.048Z,11.93
2023-04-21T15:33:03.190Z,11.83
2023-04-21T15:35:30.454Z,11.85
2023-04-21T15:37:57.660Z,11.91
2023-04-21T15:40:24.803Z,11.88
2023-04-21T15:42:52.116Z,11.88
2023-04-21T15:45:19.226Z,11.81
2023-04-21T15:47:46.285Z,11.82
2023-04-21T15:50:13.400Z,11.79
2023-04-21T15:52:43.445Z,11.74
2023-04-21T15:55:12.276Z,11.70
2023-04-21T15:57:39.423Z,11.70
2023-04-21T16:00:10.473Z,11.80
2023-04-21T16:02:38.086Z,11.79
2023-04-21T16:05:06.012Z,11.70
2023-04-21T16:07:33.336Z,11.68
2023-04-21T16:10:00.572Z,11.77
2023-04-21T16:12:27.656Z,11.78
2023-04-21T16:14:59.430Z,11.72
2023-04-21T16:17:32.114Z,11.66
2023-04-21T16:19:59.331Z,11.61
2023-04-21T16:22:26.574Z,11.55
2023-04-21T16:24:53.661Z,11.46
2023-04-21T16:27:21.045Z,11.53
2023-04-21T16:29:49.195Z,11.46
2023-04-21T16:32:16.379Z,11.35
2023-04-21T16:34:43.446Z,11.23
2023-04-21T16:37:10.784Z,11.14
2023-04-21T16:39:37.789Z,11.07
2023-04-21T16:42:04.888Z,11.04
2023-04-21T16:44:32.156Z,11.10
2023-04-21T16:46:59.289Z,10.98
2023-04-21T16:49:26.434Z,10.92
2023-04-21T16:51:53.460Z,10.77
2023-04-21T16:54:20.745Z,10.78
2023-04-21T16:56:47.830Z,10.81
2023-04-21T16:59:14.876Z,10.64
2023-04-21T17:01:42.106Z,10.47
2023-04-21T17:04:14.127Z,10.39
2023-04-21T17:06:41.613Z,10.22
2023-04-21T17:09:08.871Z,10.17
2023-04-21T17:11:38.085Z,10.10
2023-04-21T17:14:06.631Z,9.90
2023-04-21T17:16:34.922Z,9.87
2023-04-21T17:19:02.624Z,9.86
2023-04-21T17:21:29.734Z,9.58
2023-04-21T17:23:56.875Z,9.56
2023-04-21T17:26:24.193Z,9.60
2023-04-21T17:28:51.635Z,9.69
2023-04-21T17:31:18.966Z,9.57
2023-04-21T17:33:46.049Z,9.40
2023-04-21T17:36:13.447Z,9.26
2023-04-21T17:38:42.928Z,9.29
2023-04-21T17:41:10.391Z,9.21
2023-04-21T17:43:37.428Z,9.23
2023-04-21T17:46:06.087Z,9.20
2023-04-21T17:48:33.502Z,9.18
2023-04-21T17:51:00.613Z,9.18
2023-04-21T17:53:27.841Z,9.27
2023-04-21T17:55:55.021Z,9.23
2023-04-21T17:58:22.335Z,9.19
2023-04-21T18:00:49.659Z,9.07
2023-04-21T18:03:17.061Z,9.00
2023-04-21T18:05:44.740Z,9.03
2023-04-21T18:08:12.079Z,9.07
2023-04-21T18:10:39.264Z,9.03
2023-04-21T18:13:06.802Z,9.05
2023-04-21T18:15:33.843Z,9.05
2023-04-21T18:18:00.953Z,9.09
2023-04-21T18:20:28.167Z,9.11
2023-04-21T18:22:55.352Z,9.13
2023-04-21T18:25:38.289Z,9.01
2023-04-21T18:28:08.348Z,8.40
2023-04-21T18:30:35.421Z,8.04
2023-04-21T18:33:02.734Z,7.86
2023-04-21T18:35:32.021Z,7.66
2023-04-21T18:37:59.177Z,7.56
2023-04-21T18:44:16.905Z,7.58
2023-04-21T18:46:43.961Z,7.59
2023-04-21T18:49:11.018Z,7.66
2023-04-21T18:51:38.110Z,7.74
2023-04-21T18:54:05.481Z,7.68
2023-04-21T18:56:32.878Z,7.80
2023-04-21T18:59:00.029Z,7.83
2023-04-21T19:01:27.875Z,7.97
2023-04-21T19:03:55.445Z,7.89
2023-04-21T19:06:22.696Z,7.87
2023-04-21T19:08:51.329Z,7.67
2023-04-21T19:11:18.446Z,7.59
2023-04-21T19:13:45.598Z,7.61
2023-04-21T19:16:12.890Z,7.55
2023-04-21T19:18:40.223Z,7.52
2023-04-21T19:21:10.426Z,7.48
2023-04-21T19:23:37.453Z,7.64
2023-04-21T19:26:05.282Z,7.89
2023-04-21T19:28:32.672Z,8.07
2023-04-21T19:30:59.665Z,8.07
2023-04-21T19:33:26.646Z,8.01
2023-04-21T19:35:53.870Z,7.90
2023-04-21T19:38:21.102Z,7.96
2023-04-21T19:40:48.115Z,8.32
2023-04-21T19:43:15.383Z,7.93
2023-04-21T19:45:42.632Z,7.95
2023-04-21T19:48:09.684Z,8.45
2023-04-21T19:50:37.505Z,8.51
2023-04-21T19:53:04.629Z,8.40
2023-04-21T19:55:32.094Z,8.42
2023-04-21T19:57:59.043Z,8.65
2023-04-21T20:04:17.002Z,8.43
2023-04-21T20:06:44.591Z,8.52
2023-04-21T20:09:11.820Z,8.61
2023-04-21T20:11:38.863Z,8.67
2023-04-21T20:14:05.826Z,8.40
2023-04-21T20:16:33.112Z,8.01
2023-04-21T20:19:00.517Z,7.73
2023-04-21T20:21:27.558Z,7.63
2023-04-21T20:23:54.611Z,8.16
2023-04-21T20:26:22.645Z,8.15
2023-04-21T20:28:49.739Z,7.97
2023-04-21T20:31:19.147Z,7.41
2023-04-21T20:33:46.359Z,7.05
2023-04-21T20:36:13.363Z,6.97
2023-04-21T20:38:40.367Z,6.95
2023-04-21T20:41:08.946Z,6.92
2023-04-21T20:43:35.974Z,6.92
2023-04-21T20:46:03.505Z,7.37
2023-04-21T20:48:30.735Z,7.28
2023-04-21T20:50:58.074Z,7.61
2023-04-21T20:54:35.265Z,7.83
2023-04-21T20:57:02.688Z,8.01
2023-04-21T20:59:29.793Z,7.75
2023-04-21T21:01:56.887Z,7.87
2023-04-21T21:04:24.114Z,7.77
2023-04-21T21:06:51.342Z,7.83
2023-04-21T21:09:19.176Z,8.33
2023-04-21T21:11:46.645Z,8.65
2023-04-21T21:14:13.983Z,8.88
2023-04-21T21:16:41.117Z,8.92
2023-04-21T21:19:08.317Z,8.99
2023-04-21T21:21:35.390Z,8.90
2023-04-21T21:24:02.574Z,8.65
2023-04-21T21:26:29.754Z,8.12
2023-04-21T21:30:06.068Z,7.79
2023-04-21T21:32:33.091Z,7.38
2023-04-21T21:35:00.298Z,7.15
2023-04-21T21:37:27.372Z,6.89
2023-04-21T21:40:02.760Z,7.10
2023-04-21T21:42:29.802Z,7.53
2023-04-21T21:44:56.812Z,7.68
2023-04-21T21:47:23.927Z,7.58
2023-04-21T21:49:54.996Z,7.46
2023-04-21T21:52:22.350Z,7.91
2023-04-21T21:54:49.363Z,8.20
2023-04-21T21:57:16.970Z,8.39
2023-04-21T21:59:44.502Z,8.42
2023-04-21T22:02:11.477Z,7.49
2023-04-21T22:04:38.623Z,7.51
2023-04-21T22:07:05.656Z,7.13
2023-04-21T22:09:32.961Z,7.18
2023-04-21T22:11:59.992Z,7.25
2023-04-21T22:14:27.265Z,7.70
2023-04-21T22:16:54.259Z,7.89
2023-04-21T22:19:21.304Z,7.94
2023-04-21T22:21:48.581Z,8.12
2023-04-21T22:24:15.683Z,8.29
2023-04-21T22:26:44.100Z,8.41
2023-04-21T22:29:11.166Z,8.38
2023-04-21T22:31:38.366Z,8.49
2023-04-21T22:34:05.560Z,8.47
2023-04-21T22:36:32.782Z,8.47
2023-04-21T22:38:59.832Z,8.31
2023-04-21T22:41:27.738Z,8.31
2023-04-21T22:43:54.856Z,8.26
2023-04-21T22:46:21.883Z,8.22
2023-04-21T22:48:51.286Z,8.18
2023-04-21T22:51:21.614Z,8.29
2023-04-21T22:53:48.676Z,8.30
2023-04-21T22:56:16.127Z,7.95
2023-04-21T22:58:43.597Z,7.07
2023-04-21T23:01:10.683Z,7.63
2023-04-21T23:03:37.873Z,7.69
2023-04-21T23:06:05.134Z,7.43
2023-04-21T23:08:32.162Z,7.23
2023-04-21T23:10:59.482Z,7.39
2023-04-21T23:13:26.574Z,7.55
2023-04-21T23:15:53.542Z,7.58
2023-04-21T23:18:20.625Z,7.72
2023-04-21T23:20:47.588Z,7.90
2023-04-21T23:23:14.900Z,7.93
2023-04-21T23:25:42.004Z,8.01
2023-04-21T23:28:09.077Z,8.06
2023-04-21T23:30:36.088Z,8.11
2023-04-21T23:33:03.475Z,8.12
2023-04-21T23:35:30.690Z,8.16
2023-04-21T23:37:57.732Z,8.11
2023-04-21T23:40:24.787Z,8.27
2023-04-21T23:42:51.849Z,8.34
2023-04-21T23:45:19.043Z,8.36
2023-04-21T23:47:46.263Z,8.18
2023-04-21T23:50:13.316Z,7.94
2023-04-21T23:52:42.331Z,7.27
2023-04-21T23:55:12.382Z,6.91
2023-04-21T23:57:39.435Z,7.16
